createdAt,value
2024-02-14T00:00:13.439Z,0.00
2024-02-14T00:01:13.428Z,0.00
2024-02-14T00:02:13.352Z,0.00
2024-02-14T00:03:13.879Z,0.00
2024-02-14T00:04:13.375Z,0.00
2024-02-14T00:05:13.369Z,0.00
2024-02-14T00:06:13.440Z,0.00
2024-02-14T00:07:13.319Z,0.00
2024-02-14T00:08:13.734Z,0.00
2024-02-14T00:09:13.375Z,0.00
2024-02-14T00:10:13.237Z,0.00
2024-02-14T00:11:13.276Z,0.00
2024-02-14T00:12:13.231Z,0.00
2024-02-14T00:13:13.209Z,0.00
2024-02-14T00:14:13.620Z,0.00
2024-02-14T00:15:13.236Z,0.00
2024-02-14T00:16:13.161Z,0.00
2024-02-14T00:17:13.175Z,0.00
2024-02-14T00:18:13.358Z,0.00
2024-02-14T00:19:13.251Z,0.00
2024-02-14T00:20:13.732Z,0.00
2024-02-14T00:21:13.228Z,0.00
2024-02-14T00:22:13.099Z,0.00
2024-02-14T00:23:13.149Z,0.00
2024-02-14T00:24:13.161Z,0.00
2024-02-14T00:25:13.844Z,0.00
2024-02-14T00:26:13.496Z,0.00
2024-02-14T00:27:13.057Z,0.00
2024-02-14T00:28:13.037Z,0.00
2024-02-14T00:29:13.044Z,0.00
2024-02-14T00:30:13.189Z,0.00
2024-02-14T00:31:13.035Z,0.00
2024-02-14T00:32:13.444Z,0.00
2024-02-14T00:33:13.229Z,0.00
2024-02-14T00:34:13.100Z,0.00
2024-02-14T00:35:13.011Z,0.00
2024-02-14T00:36:12.949Z,0.00
2024-02-14T00:37:12.947Z,0.00
2024-02-14T00:38:13.357Z,0.00
2024-02-14T00:39:12.896Z,0.00
2024-02-14T00:40:12.921Z,0.00
2024-02-14T00:41:12.904Z,0.00
2024-02-14T00:42:12.878Z,0.00
2024-02-14T00:43:12.936Z,0.00
2024-02-14T00:44:13.230Z,0.00
2024-02-14T00:45:12.930Z,0.00
2024-02-14T00:46:12.796Z,0.00
2024-02-14T00:47:12.821Z,0.00
2024-02-14T00:48:12.919Z,0.00
2024-02-14T00:49:13.337Z,0.00
2024-02-14T00:50:12.789Z,0.00
2024-02-14T00:51:12.792Z,0.00
2024-02-14T00:52:12.737Z,0.00
2024-02-14T00:53:12.765Z,0.00
2024-02-14T00:54:12.695Z,0.00
2024-02-14T00:55:13.169Z,0.00
2024-02-14T00:56:12.706Z,0.00
2024-02-14T00:57:12.745Z,0.00
2024-02-14T00:58:12.672Z,0.00
2024-02-14T00:59:12.644Z,0.00
2024-02-14T01:00:12.760Z,0.00
2024-02-14T01:01:13.171Z,0.00
2024-02-14T01:02:12.597Z,0.00
2024-02-14T01:03:12.663Z,0.00
2024-02-14T01:04:12.765Z,0.00
2024-02-14T01:05:12.631Z,0.00
2024-02-14T01:06:12.627Z,0.00
2024-02-14T01:07:12.999Z,0.00
2024-02-14T01:08:12.559Z,0.00
2024-02-14T01:09:12.587Z,0.00
2024-02-14T01:10:12.561Z,0.00
2024-02-14T01:11:12.532Z,0.00
2024-02-14T01:12:12.526Z,0.00
2024-02-14T01:13:12.895Z,0.00
2024-02-14T01:14:12.481Z,0.00
2024-02-14T01:15:12.526Z,0.00
2024-02-14T01:16:12.470Z,0.00
2024-02-14T01:17:12.433Z,0.00
2024-02-14T01:18:12.559Z,0.00
2024-02-14T01:19:13.052Z,0.00
2024-02-14T01:20:12.479Z,0.00
2024-02-14T01:21:12.418Z,0.00
2024-02-14T01:22:12.344Z,0.00
2024-02-14T01:23:12.348Z,0.00
2024-02-14T01:24:12.833Z,0.00
2024-02-14T01:25:12.312Z,0.00
2024-02-14T01:26:12.288Z,0.00
2024-02-14T01:27:12.378Z,0.00
2024-02-14T01:28:12.374Z,0.00
2024-02-14T01:29:12.731Z,0.00
2024-02-14T01:30:12.354Z,0.00
2024-02-14T01:31:12.262Z,0.00
2024-02-14T01:32:12.225Z,0.00
2024-02-14T01:33:12.479Z,0.00
2024-02-14T01:34:12.411Z,0.00
2024-02-14T01:35:12.597Z,0.00
2024-02-14T01:36:12.241Z,0.00
2024-02-14T01:37:12.174Z,0.00
2024-02-14T01:38:12.192Z,0.00
2024-02-14T01:39:12.163Z,0.00
2024-02-14T01:40:12.555Z,0.00
2024-02-14T01:41:12.089Z,0.00
2024-02-14T01:42:12.146Z,0.00
2024-02-14T01:43:12.105Z,0.00
2024-02-14T01:44:12.089Z,0.00
2024-02-14T01:45:12.485Z,0.00
2024-02-14T01:46:12.092Z,0.00
2024-02-14T01:47:12.131Z,0.00
2024-02-14T01:48:12.151Z,0.00
2024-02-14T01:49:12.156Z,0.00
2024-02-14T01:50:12.416Z,0.00
2024-02-14T01:51:12.021Z,0.00
2024-02-14T01:52:12.021Z,0.00
2024-02-14T01:53:11.970Z,0.00
2024-02-14T01:54:11.945Z,0.00
2024-02-14T01:55:12.396Z,0.00
2024-02-14T01:56:11.924Z,0.00
2024-02-14T01:57:12.050Z,0.00
2024-02-14T01:58:11.932Z,0.00
2024-02-14T01:59:11.889Z,0.00
2024-02-14T02:00:12.377Z,0.00
2024-02-14T02:01:11.891Z,0.00
2024-02-14T02:02:11.878Z,0.00
2024-02-14T02:03:11.954Z,0.00
2024-02-14T02:04:11.919Z,0.00
2024-02-14T02:05:11.845Z,0.00
2024-02-14T02:06:12.290Z,0.00
2024-02-14T02:07:11.799Z,0.00
2024-02-14T02:08:11.823Z,0.00
2024-02-14T02:09:11.872Z,0.00
2024-02-14T02:10:11.846Z,0.00
2024-02-14T02:11:12.158Z,0.00
2024-02-14T02:12:11.838Z,0.00
2024-02-14T02:13:11.832Z,0.00
2024-02-14T02:14:11.712Z,0.00
2024-02-14T02:15:11.706Z,0.00
2024-02-14T02:16:12.067Z,0.00
2024-02-14T02:17:11.694Z,0.00
2024-02-14T02:18:11.829Z,0.00
2024-02-14T02:19:11.759Z,0.00
2024-02-14T02:20:11.635Z,0.00
2024-02-14T02:21:12.114Z,0.00
2024-02-14T02:22:11.626Z,0.00
2024-02-14T02:23:11.606Z,0.00
2024-02-14T02:24:11.671Z,0.00
2024-02-14T02:25:11.551Z,0.00
2024-02-14T02:26:11.978Z,0.00
2024-02-14T02:27:11.575Z,0.00
2024-02-14T02:28:11.554Z,0.00
2024-02-14T02:29:11.557Z,0.00
2024-02-14T02:30:11.628Z,0.00
2024-02-14T02:31:11.787Z,0.00
2024-02-14T02:32:11.951Z,0.00
2024-02-14T02:33:11.518Z,0.00
2024-02-14T02:34:11.574Z,0.00
2024-02-14T02:35:11.454Z,0.00
2024-02-14T02:36:11.500Z,0.00
2024-02-14T02:37:11.461Z,0.00
2024-02-14T02:38:11.802Z,0.00
2024-02-14T02:39:11.468Z,0.00
2024-02-14T02:40:11.435Z,0.00
2024-02-14T02:41:11.365Z,0.00
2024-02-14T02:42:11.402Z,0.00
2024-02-14T02:43:11.392Z,0.00
2024-02-14T02:44:11.779Z,0.00
2024-02-14T02:45:11.336Z,0.00
2024-02-14T02:46:11.300Z,0.00
2024-02-14T02:47:11.291Z,0.00
2024-02-14T02:48:11.347Z,0.00
2024-02-14T02:49:11.848Z,0.00
2024-02-14T02:50:11.252Z,0.00
2024-02-14T02:51:11.280Z,0.00
2024-02-14T02:52:11.240Z,0.00
2024-02-14T02:53:11.194Z,0.00
2024-02-14T02:54:11.249Z,0.00
2024-02-14T02:55:11.684Z,0.00
2024-02-14T02:56:11.190Z,0.00
2024-02-14T02:57:11.195Z,0.00
2024-02-14T02:58:11.209Z,0.00
2024-02-14T02:59:11.168Z,0.00
2024-02-14T03:00:11.748Z,0.00
2024-02-14T03:01:11.125Z,0.00
2024-02-14T03:02:11.127Z,0.00
2024-02-14T03:03:11.242Z,0.00
2024-02-14T03:04:11.089Z,0.00
2024-02-14T03:05:11.959Z,0.00
2024-02-14T03:06:11.112Z,0.00
2024-02-14T03:07:11.108Z,0.00
2024-02-14T03:08:11.045Z,0.00
2024-02-14T03:09:11.088Z,0.00
2024-02-14T03:10:11.047Z,0.00
2024-02-14T03:11:11.432Z,0.00
2024-02-14T03:12:11.039Z,0.00
2024-02-14T03:13:10.932Z,0.00
2024-02-14T03:14:10.969Z,0.00
2024-02-14T03:15:10.981Z,0.00
2024-02-14T03:16:10.933Z,0.00
2024-02-14T03:17:11.413Z,0.00
2024-02-14T03:18:11.120Z,0.00
2024-02-14T03:19:10.948Z,0.00
2024-02-14T03:20:12.284Z,0.00
2024-02-14T03:21:10.893Z,0.00
2024-02-14T03:22:11.267Z,0.00
2024-02-14T03:23:10.891Z,0.00
2024-02-14T03:24:10.961Z,0.00
2024-02-14T03:25:10.825Z,0.00
2024-02-14T03:26:10.804Z,0.00
2024-02-14T03:27:11.312Z,0.00
2024-02-14T03:28:10.817Z,0.00
2024-02-14T03:29:10.747Z,0.00
2024-02-14T03:30:10.885Z,0.00
2024-02-14T03:31:10.718Z,0.00
2024-02-14T03:32:11.158Z,0.00
2024-02-14T03:33:10.810Z,0.00
2024-02-14T03:34:10.814Z,0.00
2024-02-14T03:35:10.701Z,0.00
2024-02-14T03:36:10.696Z,0.00
2024-02-14T03:37:10.660Z,0.00
2024-02-14T03:38:11.166Z,0.00
2024-02-14T03:39:10.630Z,0.00
2024-02-14T03:40:10.600Z,0.00
2024-02-14T03:41:10.609Z,0.00
2024-02-14T03:42:10.666Z,0.00
2024-02-14T03:43:11.002Z,0.00
2024-02-14T03:44:10.553Z,0.00
2024-02-14T03:45:10.935Z,0.00
2024-02-14T03:46:10.549Z,0.00
2024-02-14T03:47:10.512Z,0.00
2024-02-14T03:48:10.591Z,0.00
2024-02-14T03:49:11.051Z,0.00
2024-02-14T03:50:10.477Z,0.00
2024-02-14T03:51:10.506Z,0.00
2024-02-14T03:52:10.489Z,0.00
2024-02-14T03:53:10.458Z,0.00
2024-02-14T03:54:10.576Z,0.00
2024-02-14T03:55:10.817Z,0.00
2024-02-14T03:56:10.430Z,0.00
2024-02-14T03:57:10.593Z,0.00
2024-02-14T03:58:10.373Z,0.00
2024-02-14T03:59:10.353Z,0.00
2024-02-14T04:00:10.429Z,0.00
2024-02-14T04:01:10.798Z,0.00
2024-02-14T04:02:10.369Z,0.00
2024-02-14T04:03:10.424Z,0.00
2024-02-14T04:04:10.320Z,0.00
2024-02-14T04:05:11.268Z,0.00
2024-02-14T04:06:10.741Z,0.00
2024-02-14T04:07:10.325Z,0.00
2024-02-14T04:08:10.271Z,0.00
2024-02-14T04:09:10.275Z,0.00
2024-02-14T04:10:11.234Z,0.00
2024-02-14T04:11:10.266Z,0.00
2024-02-14T04:12:10.622Z,0.00
2024-02-14T04:13:10.162Z,0.00
2024-02-14T04:14:10.171Z,0.00
2024-02-14T04:15:10.280Z,0.00
2024-02-14T04:16:10.215Z,0.00
2024-02-14T04:17:10.145Z,0.00
2024-02-14T04:18:10.629Z,0.00
2024-02-14T04:19:10.305Z,0.00
2024-02-14T04:20:10.101Z,0.00
2024-02-14T04:21:10.259Z,0.00
2024-02-14T04:22:10.085Z,0.00
2024-02-14T04:23:10.075Z,0.00
2024-02-14T04:24:10.545Z,0.00
2024-02-14T04:25:10.076Z,0.00
2024-02-14T04:26:09.995Z,0.00
2024-02-14T04:27:10.054Z,0.00
2024-02-14T04:28:09.997Z,0.00
2024-02-14T04:29:10.804Z,0.00
2024-02-14T04:30:10.138Z,0.00
2024-02-14T04:31:09.959Z,0.00
2024-02-14T04:32:09.938Z,0.00
2024-02-14T04:33:13.704Z,0.00
2024-02-14T04:34:10.468Z,0.00
2024-02-14T04:35:10.098Z,0.00
2024-02-14T04:36:09.992Z,0.00
2024-02-14T04:37:09.870Z,0.00
2024-02-14T04:38:09.909Z,0.00
2024-02-14T04:39:09.957Z,0.00
2024-02-14T04:40:10.256Z,0.00
2024-02-14T04:41:09.895Z,0.00
2024-02-14T04:42:09.988Z,0.00
2024-02-14T04:43:09.900Z,0.00
2024-02-14T04:44:09.859Z,0.00
2024-02-14T04:45:10.381Z,0.00
2024-02-14T04:46:09.807Z,0.00
2024-02-14T04:47:09.741Z,0.00
2024-02-14T04:48:09.821Z,0.00
2024-02-14T04:49:09.940Z,0.00
2024-02-14T04:50:09.737Z,0.00
2024-02-14T04:51:10.262Z,0.00
2024-02-14T04:52:09.695Z,0.00
2024-02-14T04:53:09.669Z,0.00
2024-02-14T04:54:09.709Z,0.00
2024-02-14T04:55:09.706Z,0.00
2024-02-14T04:56:10.029Z,0.00
2024-02-14T04:57:09.637Z,0.00
2024-02-14T04:58:09.648Z,0.00
2024-02-14T04:59:09.605Z,0.00
2024-02-14T05:00:09.615Z,0.00
2024-02-14T05:01:10.057Z,0.00
2024-02-14T05:02:09.563Z,0.00
2024-02-14T05:03:09.629Z,0.00
2024-02-14T05:04:09.580Z,0.00
2024-02-14T05:05:09.579Z,0.00
2024-02-14T05:06:09.579Z,0.00
2024-02-14T05:07:10.012Z,0.00
2024-02-14T05:08:09.503Z,0.00
2024-02-14T05:09:10.191Z,0.00
2024-02-14T05:10:09.439Z,0.00
2024-02-14T05:11:09.482Z,0.00
2024-02-14T05:12:09.552Z,0.00
2024-02-14T05:13:09.830Z,0.00
2024-02-14T05:14:09.406Z,0.00
2024-02-14T05:15:09.404Z,0.00
2024-02-14T05:16:09.431Z,0.00
2024-02-14T05:17:09.361Z,0.00
2024-02-14T05:18:10.065Z,0.00
2024-02-14T05:19:09.486Z,0.00
2024-02-14T05:20:09.304Z,0.00
2024-02-14T05:21:09.520Z,0.00
2024-02-14T05:22:09.313Z,0.00
2024-02-14T05:23:09.715Z,0.00
2024-02-14T05:24:09.345Z,0.00
2024-02-14T05:25:09.298Z,0.00
2024-02-14T05:26:09.238Z,0.00
2024-02-14T05:27:09.270Z,0.00
2024-02-14T05:28:09.246Z,0.00
2024-02-14T05:29:09.590Z,0.00
2024-02-14T05:30:09.260Z,0.00
2024-02-14T05:31:09.204Z,0.00
2024-02-14T05:32:09.207Z,0.00
2024-02-14T05:33:09.232Z,0.00
2024-02-14T05:34:09.768Z,0.00
2024-02-14T05:35:09.179Z,0.00
2024-02-14T05:36:09.193Z,0.00
2024-02-14T05:37:09.098Z,0.00
2024-02-14T05:38:09.064Z,0.00
2024-02-14T05:39:09.632Z,0.00
2024-02-14T05:40:09.110Z,0.00
2024-02-14T05:41:09.118Z,0.00
2024-02-14T05:42:09.123Z,0.00
2024-02-14T05:43:09.028Z,0.00
2024-02-14T05:44:09.428Z,0.00
2024-02-14T05:45:09.054Z,0.00
2024-02-14T05:46:09.019Z,0.00
2024-02-14T05:47:08.963Z,0.00
2024-02-14T05:48:09.038Z,0.00
2024-02-14T05:49:09.208Z,0.00
2024-02-14T05:50:09.376Z,0.00
2024-02-14T05:51:09.244Z,0.00
2024-02-14T05:52:08.949Z,0.00
2024-02-14T05:53:08.897Z,0.00
2024-02-14T05:54:09.037Z,0.00
2024-02-14T05:55:08.871Z,0.00
2024-02-14T05:56:09.441Z,0.00
2024-02-14T05:57:08.931Z,0.00
2024-02-14T05:58:08.809Z,0.00
2024-02-14T05:59:08.869Z,0.00
2024-02-14T06:00:08.912Z,0.00
2024-02-14T06:01:08.938Z,0.00
2024-02-14T06:02:09.235Z,0.00
2024-02-14T06:03:08.805Z,0.00
2024-02-14T06:04:08.846Z,0.00
2024-02-14T06:05:08.756Z,0.00
2024-02-14T06:06:08.794Z,0.00
2024-02-14T06:07:08.708Z,0.00
2024-02-14T06:08:09.124Z,0.00
2024-02-14T06:09:08.841Z,0.00
2024-02-14T06:10:08.673Z,0.00
2024-02-14T06:11:08.670Z,0.00
2024-02-14T06:12:08.738Z,0.00
2024-02-14T06:13:09.092Z,0.00
2024-02-14T06:14:08.770Z,0.00
2024-02-14T06:15:08.812Z,0.00
2024-02-14T06:16:08.663Z,0.00
2024-02-14T06:17:08.650Z,0.00
2024-02-14T06:18:08.637Z,0.00
2024-02-14T06:19:09.017Z,0.00
2024-02-14T06:20:09.372Z,0.00
2024-02-14T06:21:08.585Z,0.00
2024-02-14T06:22:08.573Z,0.00
2024-02-14T06:23:08.520Z,0.00
2024-02-14T06:24:08.978Z,0.00
2024-02-14T06:25:08.518Z,0.00
2024-02-14T06:26:08.582Z,0.00
2024-02-14T06:27:08.546Z,0.00
2024-02-14T06:28:08.452Z,0.00
2024-02-14T06:29:08.890Z,0.00
2024-02-14T06:30:08.907Z,0.00
2024-02-14T06:31:08.438Z,0.00
2024-02-14T06:32:08.512Z,0.00
2024-02-14T06:33:08.520Z,0.00
2024-02-14T06:34:08.686Z,0.00
2024-02-14T06:35:08.922Z,0.00
2024-02-14T06:36:08.390Z,0.00
2024-02-14T06:37:08.381Z,0.00
2024-02-14T06:38:08.316Z,0.00
2024-02-14T06:39:08.354Z,0.00
2024-02-14T06:40:08.291Z,5.62
2024-02-14T06:41:08.704Z,5.62
2024-02-14T06:42:08.326Z,5.62
2024-02-14T06:43:08.233Z,5.62
2024-02-14T06:44:08.220Z,5.62
2024-02-14T06:45:08.311Z,5.62
2024-02-14T06:46:08.251Z,5.62
2024-02-14T06:47:08.758Z,5.62
2024-02-14T06:48:08.310Z,5.62
2024-02-14T06:49:08.553Z,5.62
2024-02-14T06:50:08.905Z,11.25
2024-02-14T06:51:08.296Z,11.25
2024-02-14T06:52:08.191Z,11.25
2024-02-14T06:53:08.517Z,11.25
2024-02-14T06:54:08.093Z,11.25
2024-02-14T06:55:08.096Z,11.25
2024-02-14T06:56:08.081Z,11.25
2024-02-14T06:57:08.139Z,16.88
2024-02-14T06:58:08.452Z,16.88
2024-02-14T06:59:08.046Z,16.88
2024-02-14T07:00:08.379Z,16.88
2024-02-14T07:01:08.076Z,22.50
2024-02-14T07:02:13.430Z,22.50
2024-02-14T07:03:09.991Z,22.50
2024-02-14T07:04:08.007Z,22.50
2024-02-14T07:05:07.945Z,22.50
2024-02-14T07:06:08.138Z,22.50
2024-02-14T07:07:08.048Z,22.50
2024-02-14T07:08:07.904Z,22.50
2024-02-14T07:09:10.179Z,22.50
2024-02-14T07:10:07.942Z,22.50
2024-02-14T07:11:07.936Z,22.50
2024-02-14T07:12:07.911Z,22.50
2024-02-14T07:13:07.874Z,22.50
2024-02-14T07:14:08.299Z,22.50
2024-02-14T07:15:07.939Z,28.12
2024-02-14T07:16:10.134Z,28.12
2024-02-14T07:17:07.877Z,28.12
2024-02-14T07:18:07.928Z,28.12
2024-02-14T07:19:07.962Z,28.12
2024-02-14T07:20:08.262Z,28.12
2024-02-14T07:21:07.795Z,28.12
2024-02-14T07:22:07.765Z,28.12
2024-02-14T07:23:07.740Z,28.12
2024-02-14T07:24:08.074Z,33.75
2024-02-14T07:25:08.145Z,33.75
2024-02-14T07:26:07.689Z,33.75
2024-02-14T07:27:09.814Z,33.75
2024-02-14T07:28:07.759Z,33.75
2024-02-14T07:29:08.086Z,33.75
2024-02-14T07:30:08.660Z,33.75
2024-02-14T07:31:07.876Z,33.75
2024-02-14T07:32:08.089Z,28.12
2024-02-14T07:33:08.083Z,28.12
2024-02-14T07:34:09.992Z,22.50
2024-02-14T07:35:08.196Z,22.50
2024-02-14T07:36:07.591Z,22.50
2024-02-14T07:37:07.812Z,22.50
2024-02-14T07:38:08.173Z,16.88
2024-02-14T07:39:07.566Z,16.88
2024-02-14T07:40:07.965Z,16.88
2024-02-14T07:41:07.526Z,16.88
2024-02-14T07:42:07.561Z,16.88
2024-02-14T07:43:07.576Z,16.88
2024-02-14T07:44:07.509Z,16.88
2024-02-14T07:45:07.921Z,16.88
2024-02-14T07:46:07.423Z,16.88
2024-02-14T07:47:07.983Z,22.50
2024-02-14T07:48:07.495Z,22.50
2024-02-14T07:49:07.576Z,22.50
2024-02-14T07:50:07.886Z,22.50
2024-02-14T07:51:07.429Z,22.50
2024-02-14T07:52:07.366Z,22.50
2024-02-14T07:53:07.530Z,22.50
2024-02-14T07:54:07.422Z,22.50
2024-02-14T07:55:43.166Z,22.50
2024-02-14T07:56:07.303Z,22.50
2024-02-14T07:57:07.319Z,16.88
2024-02-14T07:58:07.315Z,22.50
2024-02-14T07:59:07.454Z,22.50
2024-02-14T08:00:07.300Z,22.50
2024-02-14T08:01:07.744Z,22.50
2024-02-14T08:02:07.212Z,22.50
2024-02-14T08:03:07.422Z,22.50
2024-02-14T08:04:07.334Z,28.12
2024-02-14T08:05:07.905Z,39.38
2024-02-14T08:06:07.647Z,45.00
2024-02-14T08:07:07.247Z,45.00
2024-02-14T08:08:07.142Z,45.00
2024-02-14T08:09:07.273Z,45.00
2024-02-14T08:10:07.182Z,45.00
2024-02-14T08:11:07.092Z,39.38
2024-02-14T08:12:07.703Z,39.38
2024-02-14T08:13:07.084Z,39.38
2024-02-14T08:14:07.104Z,39.38
2024-02-14T08:15:07.349Z,45.00
2024-02-14T08:16:07.078Z,45.00
2024-02-14T08:17:07.495Z,45.00
2024-02-14T08:18:10.118Z,45.00
2024-02-14T08:19:07.307Z,45.00
2024-02-14T08:20:07.168Z,45.00
2024-02-14T08:21:07.097Z,50.62
2024-02-14T08:22:07.034Z,50.62
2024-02-14T08:23:07.464Z,56.25
2024-02-14T08:24:07.064Z,56.25
2024-02-14T08:25:06.987Z,61.88
2024-02-14T08:26:07.019Z,61.88
2024-02-14T08:27:06.957Z,61.88
2024-02-14T08:28:07.338Z,67.50
2024-02-14T08:29:06.999Z,67.50
2024-02-14T08:30:06.957Z,67.50
2024-02-14T08:31:06.867Z,67.50
2024-02-14T08:32:07.012Z,73.12
2024-02-14T08:33:07.123Z,73.12
2024-02-14T08:34:07.442Z,73.12
2024-02-14T08:35:06.841Z,73.12
2024-02-14T08:36:06.930Z,67.50
2024-02-14T08:37:06.769Z,67.50
2024-02-14T08:38:06.785Z,67.50
2024-02-14T08:39:07.272Z,67.50
2024-02-14T08:40:06.764Z,67.50
2024-02-14T08:41:06.748Z,61.88
2024-02-14T08:42:06.790Z,61.88
2024-02-14T08:43:06.702Z,67.50
2024-02-14T08:44:07.127Z,78.75
2024-02-14T08:45:06.716Z,84.38
2024-02-14T08:46:06.679Z,90.00
2024-02-14T08:47:06.679Z,90.00
2024-02-14T08:48:06.755Z,84.38
2024-02-14T08:49:08.944Z,90.00
2024-02-14T08:50:06.624Z,84.38
2024-02-14T08:51:06.682Z,84.38
2024-02-14T08:52:06.737Z,84.38
2024-02-14T08:53:06.606Z,84.38
2024-02-14T08:54:07.064Z,78.75
2024-02-14T08:55:07.345Z,73.12
2024-02-14T08:56:06.523Z,73.12
2024-02-14T08:57:06.638Z,67.50
2024-02-14T08:58:06.552Z,61.88
2024-02-14T08:59:06.556Z,61.88
2024-02-14T09:00:06.940Z,61.88
2024-02-14T09:01:13.579Z,56.25
2024-02-14T09:02:07.965Z,50.62
2024-02-14T09:03:06.610Z,50.62
2024-02-14T09:04:06.525Z,56.25
2024-02-14T09:05:06.845Z,61.88
2024-02-14T09:06:06.525Z,61.88
2024-02-14T09:07:06.431Z,56.25
2024-02-14T09:08:06.385Z,56.25
2024-02-14T09:09:06.609Z,61.88
2024-02-14T09:10:06.853Z,67.50
2024-02-14T09:11:06.337Z,67.50
2024-02-14T09:12:06.419Z,61.88
2024-02-14T09:13:06.302Z,50.62
2024-02-14T09:14:06.370Z,56.25
2024-02-14T09:15:06.832Z,67.50
2024-02-14T09:16:06.282Z,56.25
2024-02-14T09:17:06.358Z,45.00
2024-02-14T09:18:06.297Z,45.00
2024-02-14T09:19:06.283Z,56.25
2024-02-14T09:20:06.720Z,67.50
2024-02-14T09:21:06.495Z,61.88
2024-02-14T09:22:06.213Z,61.88
2024-02-14T09:23:06.219Z,56.25
2024-02-14T09:24:06.249Z,56.25
2024-02-14T09:25:06.242Z,73.12
2024-02-14T09:26:06.583Z,78.75
2024-02-14T09:27:06.194Z,84.38
2024-02-14T09:28:06.152Z,90.00
2024-02-14T09:29:06.115Z,84.38
2024-02-14T09:30:06.150Z,84.38
2024-02-14T09:31:06.078Z,95.62
2024-02-14T09:32:06.495Z,95.62
2024-02-14T09:33:06.536Z,84.38
2024-02-14T09:34:06.225Z,78.75
2024-02-14T09:35:06.281Z,73.12
2024-02-14T09:36:06.101Z,73.12
2024-02-14T09:37:06.567Z,73.12
2024-02-14T09:38:06.082Z,78.75
2024-02-14T09:39:06.049Z,84.38
2024-02-14T09:40:05.966Z,84.38
2024-02-14T09:41:06.039Z,84.38
2024-02-14T09:42:05.952Z,90.00
2024-02-14T09:43:06.392Z,84.38
2024-02-14T09:44:05.916Z,78.75
2024-02-14T09:45:06.128Z,84.38
2024-02-14T09:46:05.931Z,78.75
2024-02-14T09:47:05.855Z,61.88
2024-02-14T09:48:06.160Z,61.88
2024-02-14T09:49:06.548Z,56.25
2024-02-14T09:50:05.869Z,56.25
2024-02-14T09:51:05.939Z,56.25
2024-02-14T09:52:05.827Z,50.62
2024-02-14T09:53:07.731Z,50.62
2024-02-14T09:54:05.829Z,61.88
2024-02-14T09:55:06.229Z,73.12
2024-02-14T09:56:05.777Z,73.12
2024-02-14T09:57:05.851Z,67.50
2024-02-14T09:58:05.744Z,67.50
2024-02-14T09:59:05.716Z,73.12
2024-02-14T10:00:05.762Z,78.75
2024-02-14T10:01:06.156Z,90.00
2024-02-14T10:02:05.772Z,90.00
2024-02-14T10:03:05.883Z,84.38
2024-02-14T10:04:05.734Z,73.12
2024-02-14T10:05:05.982Z,73.12
2024-02-14T10:06:06.163Z,73.12
2024-02-14T10:07:06.244Z,84.38
2024-02-14T10:08:05.602Z,78.75
2024-02-14T10:09:05.847Z,78.75
2024-02-14T10:10:05.647Z,78.75
2024-02-14T10:11:05.555Z,73.12
2024-02-14T10:12:05.606Z,78.75
2024-02-14T10:13:06.084Z,84.38
2024-02-14T10:14:06.070Z,78.75
2024-02-14T10:15:05.622Z,84.38
2024-02-14T10:16:05.490Z,90.00
2024-02-14T10:17:05.536Z,101.25
2024-02-14T10:18:06.050Z,112.50
2024-02-14T10:19:05.737Z,123.75
2024-02-14T10:20:05.603Z,129.38
2024-02-14T10:21:05.539Z,123.75
2024-02-14T10:22:05.448Z,118.12
2024-02-14T10:23:05.481Z,101.25
2024-02-14T10:24:05.924Z,73.12
2024-02-14T10:25:05.405Z,61.88
2024-02-14T10:26:05.499Z,67.50
2024-02-14T10:27:05.494Z,67.50
2024-02-14T10:28:05.401Z,106.88
2024-02-14T10:29:05.426Z,151.88
2024-02-14T10:30:05.954Z,151.88
2024-02-14T10:31:05.410Z,135.00
2024-02-14T10:32:05.375Z,112.50
2024-02-14T10:33:14.020Z,90.00
2024-02-14T10:34:06.876Z,78.75
2024-02-14T10:35:05.747Z,73.12
2024-02-14T10:36:05.435Z,67.50
2024-02-14T10:37:05.253Z,61.88
2024-02-14T10:38:05.279Z,61.88
2024-02-14T10:39:05.259Z,67.50
2024-02-14T10:40:05.267Z,67.50
2024-02-14T10:41:07.529Z,78.75
2024-02-14T10:42:05.227Z,84.38
2024-02-14T10:43:05.227Z,90.00
2024-02-14T10:44:05.171Z,90.00
2024-02-14T10:45:05.201Z,95.62
2024-02-14T10:46:05.197Z,95.62
2024-02-14T10:47:05.516Z,95.62
2024-02-14T10:48:05.235Z,106.88
2024-02-14T10:49:05.284Z,112.50
2024-02-14T10:50:05.363Z,129.38
2024-02-14T10:51:05.251Z,140.62
2024-02-14T10:52:05.452Z,151.88
2024-02-14T10:53:05.082Z,163.12
2024-02-14T10:54:05.131Z,180.00
2024-02-14T10:55:05.107Z,196.88
2024-02-14T10:56:05.074Z,219.38
2024-02-14T10:57:05.061Z,230.62
2024-02-14T10:58:05.388Z,225.00
2024-02-14T10:59:05.001Z,196.88
2024-02-14T11:00:05.027Z,185.62
2024-02-14T11:01:05.017Z,174.38
2024-02-14T11:02:04.986Z,174.38
2024-02-14T11:03:05.515Z,174.38
2024-02-14T11:04:04.923Z,151.88
2024-02-14T11:05:04.926Z,146.25
2024-02-14T11:06:05.788Z,129.38
2024-02-14T11:07:04.966Z,118.12
2024-02-14T11:08:05.237Z,106.88
2024-02-14T11:09:04.975Z,101.25
2024-02-14T11:10:05.004Z,101.25
2024-02-14T11:11:04.815Z,112.50
2024-02-14T11:12:04.908Z,112.50
2024-02-14T11:13:05.252Z,112.50
2024-02-14T11:14:04.841Z,101.25
2024-02-14T11:15:04.810Z,90.00
2024-02-14T11:16:04.774Z,84.38
2024-02-14T11:17:04.742Z,78.75
2024-02-14T11:18:05.394Z,84.38
2024-02-14T11:19:04.912Z,84.38
2024-02-14T11:20:04.921Z,90.00
2024-02-14T11:21:04.966Z,84.38
2024-02-14T11:22:04.678Z,78.75
2024-02-14T11:23:04.761Z,78.75
2024-02-14T11:24:05.137Z,78.75
2024-02-14T11:25:04.629Z,73.12
2024-02-14T11:26:04.664Z,73.12
2024-02-14T11:27:04.717Z,73.12
2024-02-14T11:28:04.713Z,73.12
2024-02-14T11:29:05.026Z,67.50
2024-02-14T11:30:04.999Z,67.50
2024-02-14T11:31:04.866Z,73.12
2024-02-14T11:32:04.630Z,84.38
2024-02-14T11:33:04.657Z,95.62
2024-02-14T11:34:05.409Z,106.88
2024-02-14T11:35:04.620Z,112.50
2024-02-14T11:36:04.576Z,112.50
2024-02-14T11:37:04.475Z,106.88
2024-02-14T11:38:04.484Z,101.25
2024-02-14T11:39:04.472Z,101.25
2024-02-14T11:40:04.872Z,95.62
2024-02-14T11:41:04.557Z,90.00
2024-02-14T11:42:04.489Z,95.62
2024-02-14T11:43:04.434Z,90.00
2024-02-14T11:44:04.623Z,73.12
2024-02-14T11:45:04.426Z,73.12
2024-02-14T11:46:04.816Z,78.75
2024-02-14T11:47:04.348Z,84.38
2024-02-14T11:48:04.485Z,84.38
2024-02-14T11:49:04.529Z,84.38
2024-02-14T11:50:04.447Z,90.00
2024-02-14T11:51:04.395Z,90.00
2024-02-14T11:52:04.850Z,95.62
2024-02-14T11:53:04.258Z,95.62
2024-02-14T11:54:04.389Z,95.62
2024-02-14T11:55:05.138Z,78.75
2024-02-14T11:56:04.378Z,78.75
2024-02-14T11:57:04.728Z,84.38
2024-02-14T11:58:04.219Z,78.75
2024-02-14T11:59:04.313Z,78.75
2024-02-14T12:00:04.359Z,73.12
2024-02-14T12:01:04.201Z,67.50
2024-02-14T12:02:04.177Z,73.12
2024-02-14T12:03:04.741Z,73.12
2024-02-14T12:04:04.265Z,84.38
2024-02-14T12:05:04.387Z,84.38
2024-02-14T12:06:04.271Z,84.38
2024-02-14T12:07:04.290Z,84.38
2024-02-14T12:08:04.111Z,95.62
2024-02-14T12:09:04.522Z,90.00
2024-02-14T12:10:04.083Z,84.38
2024-02-14T12:11:04.058Z,84.38
2024-02-14T12:12:04.170Z,78.75
2024-02-14T12:13:03.988Z,78.75
2024-02-14T12:14:04.455Z,78.75
2024-02-14T12:15:04.057Z,84.38
2024-02-14T12:16:03.996Z,84.38
2024-02-14T12:17:04.322Z,84.38
2024-02-14T12:18:04.199Z,84.38
2024-02-14T12:19:04.424Z,95.62
2024-02-14T12:20:04.011Z,118.12
2024-02-14T12:21:03.982Z,112.50
2024-02-14T12:22:03.897Z,112.50
2024-02-14T12:23:03.935Z,118.12
2024-02-14T12:24:04.369Z,106.88
2024-02-14T12:25:03.860Z,101.25
2024-02-14T12:26:03.918Z,106.88
2024-02-14T12:27:03.870Z,112.50
2024-02-14T12:28:03.837Z,101.25
2024-02-14T12:29:04.245Z,90.00
2024-02-14T12:30:03.989Z,78.75
2024-02-14T12:31:03.883Z,67.50
2024-02-14T12:32:03.795Z,67.50
2024-02-14T12:33:04.100Z,84.38
2024-02-14T12:34:04.223Z,146.25
2024-02-14T12:35:04.297Z,140.62
2024-02-14T12:36:03.916Z,101.25
2024-02-14T12:37:03.828Z,78.75
2024-02-14T12:38:03.799Z,78.75
2024-02-14T12:39:03.984Z,78.75
2024-02-14T12:40:04.095Z,73.12
2024-02-14T12:41:03.687Z,61.88
2024-02-14T12:42:03.777Z,67.50
2024-02-14T12:43:03.687Z,67.50
2024-02-14T12:44:03.652Z,78.75
2024-02-14T12:45:03.670Z,67.50
2024-02-14T12:46:04.015Z,61.88
2024-02-14T12:47:03.594Z,56.25
2024-02-14T12:48:03.647Z,56.25
2024-02-14T12:49:03.687Z,61.88
2024-02-14T12:50:03.617Z,56.25
2024-02-14T12:51:03.965Z,61.88
2024-02-14T12:52:03.546Z,45.00
2024-02-14T12:53:03.686Z,39.38
2024-02-14T12:54:03.662Z,33.75
2024-02-14T12:55:03.511Z,39.38
2024-02-14T12:56:03.943Z,39.38
2024-02-14T12:57:03.632Z,56.25
2024-02-14T12:58:03.439Z,56.25
2024-02-14T12:59:03.461Z,56.25
2024-02-14T13:00:03.603Z,50.62
2024-02-14T13:01:03.468Z,50.62
2024-02-14T13:02:03.996Z,50.62
2024-02-14T13:03:03.463Z,56.25
2024-02-14T13:04:03.573Z,50.62